Time;durP1;ratioP1;P1;durP2;ratioP2;P2;SDS_P1;SDS_P2;PMS_P1;PMS_P2;Temp;Humidity;BMP_temperature;BMP_pressure;BME280_temperature;BME280_humidity;BME280_pressure;Samples;Min_cycle;Max_cycle;Signal;HPM_P1;HPM_P2
2023/09/21 00:00:17;;;;;;;8.82;2.97;;;18.20;99.90;;;;;;5102046;28;20522;-82
2023/09/21 00:02:55;;;;;;;7.50;3.17;;;18.20;99.90;;;;;;5101593;28;20038;-83
2023/09/21 00:05:22;;;;;;;7.57;3.70;;;18.10;99.90;;;;;;5100704;28;20034;-81
2023/09/21 00:07:49;;;;;;;8.05;2.67;;;18.10;99.90;;;;;;5101705;28;20039;-83
2023/09/21 00:10:15;;;;;;;5.00;2.45;;;18.10;99.90;;;;;;5101952;28;20020;-82
2023/09/21 00:12:42;;;;;;;5.55;3.13;;;18.10;99.90;;;;;;5101734;28;20102;-83
2023/09/21 00:15:09;;;;;;;5.45;2.95;;;18.10;99.90;;;;;;5101421;28;20154;-84
2023/09/21 00:17:35;;;;;;;10.18;3.00;;;18.10;99.90;;;;;;5102824;28;20043;-82
2023/09/21 00:20:12;;;;;;;5.72;2.47;;;18.10;99.90;;;;;;5100249;28;20118;-83
2023/09/21 00:22:38;;;;;;;10.25;3.00;;;18.10;99.90;;;;;;5100262;28;20048;-84
2023/09/21 00:25:09;;;;;;;6.45;2.83;;;18.10;99.90;;;;;;5103712;28;20023;-82
2023/09/21 00:27:39;;;;;;;5.18;3.20;;;18.10;99.90;;;;;;5104927;28;20043;-82
2023/09/21 00:30:05;;;;;;;4.32;2.97;;;18.10;99.90;;;;;;5106840;28;20035;-83
2023/09/21 00:32:30;;;;;;;7.38;2.80;;;18.00;99.90;;;;;;5101637;27;20020;-82
2023/09/21 00:34:57;;;;;;;3.90;2.50;;;18.10;99.90;;;;;;5107177;28;20030;-82
2023/09/21 00:37:23;;;;;;;4.75;2.85;;;18.10;99.90;;;;;;5104116;27;20046;-82
2023/09/21 00:39:49;;;;;;;9.30;4.13;;;18.10;99.90;;;;;;5099695;28;20027;-82
2023/09/21 00:42:15;;;;;;;10.48;3.25;;;18.10;99.90;;;;;;5106178;27;20031;-83
2023/09/21 00:44:40;;;;;;;6.40;2.40;;;18.10;99.90;;;;;;5108143;28;20031;-82
2023/09/21 00:47:09;;;;;;;4.95;2.58;;;18.10;99.90;;;;;;5105030;28;20144;-83
2023/09/21 00:49:36;;;;;;;3.97;2.90;;;18.10;99.90;;;;;;5104924;28;20154;-83
2023/09/21 00:52:05;;;;;;;6.13;2.58;;;18.00;99.90;;;;;;5098709;28;20091;-83
2023/09/21 00:54:32;;;;;;;3.58;2.50;;;18.00;99.90;;;;;;5105483;28;20043;-83
2023/09/21 00:56:59;;;;;;;4.82;3.33;;;17.90;99.90;;;;;;5096512;28;20778;-83
2023/09/21 00:59:25;;;;;;;4.30;2.85;;;17.70;99.90;;;;;;5103412;28;20035;-82
2023/09/21 01:01:50;;;;;;;5.47;3.20;;;17.60;99.90;;;;;;5101868;28;20032;-83
2023/09/21 01:04:17;;;;;;;6.82;2.78;;;17.50;99.90;;;;;;5107088;28;20055;-83
2023/09/21 01:06:47;;;;;;;4.45;3.00;;;17.30;99.90;;;;;;5103637;28;20036;-82
2023/09/21 01:09:13;;;;;;;4.45;2.70;;;17.20;99.90;;;;;;5105260;28;20031;-83
2023/09/21 01:11:39;;;;;;;9.63;3.03;;;17.10;99.90;;;;;;5103085;28;20031;-83
2023/09/21 01:14:05;;;;;;;5.65;3.00;;;17.00;99.90;;;;;;5104480;28;20422;-82
2023/09/21 01:16:31;;;;;;;5.68;2.95;;;17.00;99.90;;;;;;5103126;28;20031;-82
2023/09/21 01:18:56;;;;;;;7.30;2.85;;;16.90;99.90;;;;;;5107585;28;20034;-82
2023/09/21 01:21:46;;;;;;;7.00;2.55;;;16.90;99.90;;;;;;5106740;28;20039;-82
2023/09/21 01:24:12;;;;;;;9.45;3.35;;;16.90;99.90;;;;;;5088117;28;20420;-83
2023/09/21 01:26:38;;;;;;;8.90;2.80;;;17.00;99.90;;;;;;5100541;27;20505;-84
2023/09/21 01:29:04;;;;;;;5.43;2.40;;;17.00;99.90;;;;;;5104924;28;20046;-82
2023/09/21 01:31:29;;;;;;;5.80;2.85;;;17.10;99.90;;;;;;5104263;28;20038;-83
2023/09/21 01:33:58;;;;;;;10.38;2.95;;;17.20;99.90;;;;;;5106322;28;20131;-82
2023/09/21 01:36:24;;;;;;;4.55;2.67;;;17.30;99.90;;;;;;5105897;28;20024;-82
2023/09/21 01:38:51;;;;;;;9.05;3.33;;;17.40;99.90;;;;;;5084933;28;20028;-83
2023/09/21 01:41:18;;;;;;;4.43;2.47;;;17.40;99.90;;;;;;5104492;28;20341;-83
2023/09/21 01:43:44;;;;;;;8.02;2.58;;;17.50;99.90;;;;;;5107621;28;20088;-83
2023/09/21 01:46:10;;;;;;;3.53;2.63;;;17.50;99.90;;;;;;5104150;28;20019;-82
2023/09/21 01:48:36;;;;;;;4.45;2.42;;;17.60;99.90;;;;;;5101473;28;20436;-83
2023/09/21 01:51:02;;;;;;;6.15;2.92;;;17.60;99.90;;;;;;5082995;28;20028;-83
2023/09/21 01:53:28;;;;;;;3.13;1.75;;;17.60;99.90;;;;;;5101032;28;20016;-83
2023/09/21 01:55:53;;;;;;;7.50;2.95;;;17.60;99.90;;;;;;5102880;28;20028;-84
2023/09/21 01:58:23;;;;;;;9.00;2.50;;;17.60;99.90;;;;;;5105399;28;20065;-80
2023/09/21 02:00:50;;;;;;;7.45;2.70;;;17.70;99.90;;;;;;5104585;28;20522;-83
2023/09/21 02:03:25;;;;;;;4.43;2.70;;;17.70;99.90;;;;;;5105081;28;20064;-83
2023/09/21 02:05:50;;;;;;;5.40;2.45;;;17.70;99.90;;;;;;5101166;28;20083;-83
2023/09/21 02:08:19;;;;;;;5.22;2.42;;;17.70;99.90;;;;;;5102734;28;20466;-84
2023/09/21 02:10:50;;;;;;;3.72;2.05;;;17.70;99.90;;;;;;5104114;28;20032;-83
2023/09/21 02:13:16;;;;;;;3.40;2.00;;;17.70;99.90;;;;;;5106301;28;20034;-83
2023/09/21 02:15:43;;;;;;;4.57;2.67;;;17.70;99.90;;;;;;5103051;28;20173;-83
2023/09/21 02:18:10;;;;;;;7.10;2.95;;;17.60;99.90;;;;;;5104081;28;20024;-83
2023/09/21 02:20:46;;;;;;;2.95;2.03;;;17.60;99.90;;;;;;5103584;28;20031;-83
2023/09/21 02:23:12;;;;;;;6.00;2.38;;;17.50;99.90;;;;;;5099960;28;20031;-82
2023/09/21 02:25:40;;;;;;;3.60;2.28;;;17.40;99.90;;;;;;5101042;28;20040;-83
2023/09/21 02:28:12;;;;;;;4.68;2.28;;;17.40;99.90;;;;;;5103176;28;20032;-84
2023/09/21 02:30:46;;;;;;;2.65;2.10;;;17.40;99.90;;;;;;5085679;28;20073;-83
2023/09/21 02:33:12;;;;;;;4.05;2.45;;;17.50;99.90;;;;;;5099354;28;20269;-82
2023/09/21 02:35:41;;;;;;;2.80;2.20;;;17.60;99.90;;;;;;5097523;28;20564;-85
2023/09/21 02:38:11;;;;;;;5.05;2.25;;;17.60;99.90;;;;;;5102350;28;20069;-82
2023/09/21 02:40:39;;;;;;;4.13;2.22;;;17.70;99.90;;;;;;5102371;28;20087;-82
2023/09/21 02:43:04;;;;;;;3.65;2.20;;;17.80;99.90;;;;;;5092531;28;20076;-83
2023/09/21 02:45:31;;;;;;;5.75;2.67;;;17.80;99.90;;;;;;5105505;28;20032;-84
2023/09/21 02:48:01;;;;;;;5.43;2.30;;;17.90;99.90;;;;;;5102952;28;20040;-82
2023/09/21 02:50:27;;;;;;;4.75;2.50;;;17.90;99.90;;;;;;5095747;28;20047;-82
2023/09/21 02:52:54;;;;;;;3.00;2.45;;;17.90;99.90;;;;;;5101531;28;20311;-82
2023/09/21 02:55:24;;;;;;;3.63;2.25;;;17.90;99.90;;;;;;5100606;28;20015;-82
2023/09/21 02:57:58;;;;;;;3.85;2.33;;;17.90;99.90;;;;;;5083659;28;20051;-83
2023/09/21 03:03:04;;;;;;;5.05;2.38;;;17.90;99.90;;;;;;5097675;28;20540;-81
2023/09/21 03:05:33;;;;;;;5.53;2.22;;;17.90;99.90;;;;;;5104307;28;20125;-83
2023/09/21 03:08:09;;;;;;;4.53;2.63;;;17.90;99.90;;;;;;5102296;28;20096;-83
2023/09/21 03:10:36;;;;;;;5.78;2.53;;;18.00;99.90;;;;;;5102720;28;20028;-84
2023/09/21 03:13:04;;;;;;;4.43;2.30;;;17.90;99.90;;;;;;5104260;28;20016;-83
2023/09/21 03:15:30;;;;;;;5.15;2.10;;;17.90;99.90;;;;;;5100439;28;20056;-84
2023/09/21 03:17:56;;;;;;;4.13;2.22;;;17.90;99.90;;;;;;5097861;28;20116;-83
2023/09/21 03:22:54;;;;;;;5.35;2.53;;;17.80;99.90;;;;;;5102552;28;20035;-82
2023/09/21 03:25:25;;;;;;;4.18;2.40;;;17.80;99.90;;;;;;5100441;28;20087;-80
2023/09/21 03:27:55;;;;;;;3.03;2.38;;;17.80;99.90;;;;;;5098608;28;20035;-81
2023/09/21 03:30:23;;;;;;;6.35;2.80;;;17.80;99.90;;;;;;5100308;28;20045;-84
2023/09/21 03:32:50;;;;;;;3.67;2.60;;;17.80;99.90;;;;;;5102786;28;20599;-83
2023/09/21 03:35:16;;;;;;;3.58;2.20;;;17.80;99.90;;;;;;5104222;28;20400;-82
2023/09/21 03:37:45;;;;;;;7.05;2.55;;;17.80;99.90;;;;;;5101904;28;20023;-82
2023/09/21 03:40:13;;;;;;;5.90;2.38;;;17.80;99.90;;;;;;5099195;28;20122;-84
2023/09/21 03:42:38;;;;;;;4.20;2.45;;;17.80;99.90;;;;;;5098849;28;20032;-82
2023/09/21 03:45:05;;;;;;;7.78;2.80;;;17.80;99.90;;;;;;5093769;28;20076;-82
2023/09/21 03:47:32;;;;;;;8.80;2.70;;;17.80;99.90;;;;;;5098725;28;20027;-82
2023/09/21 03:50:00;;;;;;;6.13;3.10;;;17.70;99.90;;;;;;5090949;28;20023;-83
2023/09/21 03:52:28;;;;;;;5.43;2.90;;;17.70;99.90;;;;;;5097249;28;20024;-81
2023/09/21 03:54:55;;;;;;;7.22;2.72;;;17.70;99.90;;;;;;5096910;28;20030;-82
2023/09/21 03:57:21;;;;;;;4.10;3.10;;;17.60;99.90;;;;;;5099877;28;20032;-84
2023/09/21 03:59:47;;;;;;;6.65;2.20;;;17.60;99.90;;;;;;5101521;28;20032;-83
2023/09/21 04:02:14;;;;;;;5.25;2.63;;;17.60;99.90;;;;;;5105761;28;20019;-81
2023/09/21 04:04:41;;;;;;;5.53;2.53;;;17.60;99.90;;;;;;5101687;28;20470;-86
2023/09/21 04:07:08;;;;;;;3.95;2.78;;;17.60;99.90;;;;;;5100128;28;20028;-83
2023/09/21 04:09:34;;;;;;;4.32;2.70;;;17.60;99.90;;;;;;5105758;27;20030;-81
2023/09/21 04:12:00;;;;;;;3.35;2.10;;;17.60;99.90;;;;;;5102629;28;20028;-81
2023/09/21 04:14:27;;;;;;;6.80;2.22;;;17.60;99.90;;;;;;5102719;28;20077;-81
2023/09/21 04:16:55;;;;;;;3.92;2.10;;;17.60;99.90;;;;;;5105454;27;20469;-81
2023/09/21 04:19:22;;;;;;;5.22;2.85;;;17.50;99.90;;;;;;5099657;28;20100;-82
2023/09/21 04:21:48;;;;;;;8.02;2.10;;;17.60;99.90;;;;;;5105476;28;20058;-82
2023/09/21 04:24:14;;;;;;;2.38;2.00;;;17.60;99.90;;;;;;5106033;27;20023;-82
2023/09/21 04:26:40;;;;;;;3.15;1.85;;;17.60;99.90;;;;;;5104011;27;20031;-81
2023/09/21 04:29:07;;;;;;;3.30;2.17;;;17.50;99.90;;;;;;5105126;28;20517;-81
2023/09/21 04:31:32;;;;;;;4.55;2.13;;;17.50;99.90;;;;;;5106610;28;20103;-81
2023/09/21 04:34:11;;;;;;;7.78;3.30;;;17.50;99.90;;;;;;5097320;27;20169;-83
2023/09/21 04:36:36;;;;;;;2.20;1.92;;;17.60;99.90;;;;;;5101194;28;20032;-82
2023/09/21 04:39:02;;;;;;;7.32;3.13;;;17.50;99.90;;;;;;5101336;27;20062;-81
2023/09/21 04:41:34;;;;;;;4.22;2.22;;;17.50;99.90;;;;;;5103603;28;20027;-83
2023/09/21 04:44:03;;;;;;;7.85;2.38;;;17.60;99.90;;;;;;5099135;27;20122;-83
2023/09/21 04:46:29;;;;;;;7.47;2.78;;;17.60;99.90;;;;;;5093299;28;20032;-84
2023/09/21 04:48:55;;;;;;;4.88;2.90;;;17.60;99.90;;;;;;5101296;28;20035;-81
2023/09/21 04:51:20;;;;;;;3.63;2.25;;;17.60;99.90;;;;;;5100139;28;20141;-81
2023/09/21 04:53:46;;;;;;;7.10;2.38;;;17.60;99.90;;;;;;5102613;28;20057;-81
2023/09/21 04:56:12;;;;;;;6.25;2.45;;;17.70;99.90;;;;;;5106687;28;20023;-81
2023/09/21 04:58:37;;;;;;;5.63;2.00;;;17.70;99.90;;;;;;5105484;28;20028;-81
2023/09/21 05:01:09;;;;;;;6.18;2.22;;;17.70;99.90;;;;;;5105270;28;20023;-82
2023/09/21 05:03:36;;;;;;;3.67;2.05;;;17.70;99.90;;;;;;5103664;28;20024;-82
2023/09/21 05:06:03;;;;;;;2.05;1.85;;;17.70;99.90;;;;;;5100240;28;20035;-82
2023/09/21 05:08:29;;;;;;;5.20;2.42;;;17.60;99.90;;;;;;5105857;28;20103;-82
2023/09/21 05:10:54;;;;;;;2.25;1.83;;;17.60;99.90;;;;;;5103211;28;20020;-81
2023/09/21 05:13:21;;;;;;;3.13;2.08;;;17.60;99.90;;;;;;5103140;28;20023;-81
2023/09/21 05:15:48;;;;;;;4.43;2.10;;;17.50;99.90;;;;;;5106155;28;20059;-82
2023/09/21 05:18:16;;;;;;;2.50;1.63;;;17.50;99.90;;;;;;5107188;28;20039;-81
2023/09/21 05:20:45;;;;;;;5.13;2.30;;;17.40;99.90;;;;;;5105769;28;20305;-82
2023/09/21 05:23:11;;;;;;;11.90;3.58;;;17.40;99.90;;;;;;5106309;28;20066;-82
2023/09/21 05:25:36;;;;;;;5.50;3.10;;;17.40;99.90;;;;;;5107720;28;20054;-82
2023/09/21 05:28:02;;;;;;;5.25;2.03;;;17.40;99.90;;;;;;5104060;28;20040;-82
2023/09/21 05:30:29;;;;;;;3.47;2.28;;;17.40;99.90;;;;;;5099928;28;20108;-82
2023/09/21 05:33:00;;;;;;;5.30;2.00;;;17.40;99.90;;;;;;5106452;28;20035;-82
2023/09/21 05:35:27;;;;;;;4.57;2.00;;;17.30;99.90;;;;;;5104364;28;20024;-82
2023/09/21 05:37:53;;;;;;;6.78;2.08;;;17.40;99.90;;;;;;5104035;28;20400;-82
2023/09/21 05:40:19;;;;;;;3.00;1.95;;;17.40;99.90;;;;;;5106829;28;20372;-82
2023/09/21 05:42:45;;;;;;;6.43;2.42;;;17.40;99.90;;;;;;5108027;28;20118;-83
2023/09/21 05:45:11;;;;;;;5.80;2.50;;;17.40;99.90;;;;;;5105508;28;20047;-83
2023/09/21 05:47:37;;;;;;;6.60;2.42;;;17.40;99.90;;;;;;5105954;28;20464;-82
2023/09/21 05:50:05;;;;;;;3.28;2.20;;;17.40;99.90;;;;;;5106273;28;20077;-82
2023/09/21 05:52:33;;;;;;;3.90;2.00;;;17.40;99.90;;;;;;5098177;28;20039;-83
2023/09/21 05:55:00;;;;;;;5.75;2.00;;;17.40;99.90;;;;;;5105281;28;20457;-82
2023/09/21 05:57:27;;;;;;;2.85;2.03;;;17.50;99.90;;;;;;5095329;28;20432;-82
2023/09/21 05:59:54;;;;;;;3.42;2.15;;;17.50;99.90;;;;;;5098987;28;20031;-82
2023/09/21 06:02:19;;;;;;;2.67;2.15;;;17.60;99.90;;;;;;5095159;28;20044;-81
2023/09/21 06:04:46;;;;;;;5.28;1.90;;;17.60;99.90;;;;;;5099974;28;20024;-83
2023/09/21 06:07:12;;;;;;;3.33;1.75;;;17.60;99.90;;;;;;5103716;28;20020;-83
2023/09/21 06:09:38;;;;;;;5.97;2.58;;;17.70;99.90;;;;;;5105256;28;20035;-82
2023/09/21 06:12:07;;;;;;;2.95;2.05;;;17.80;99.90;;;;;;5104318;28;20024;-83
2023/09/21 06:14:36;;;;;;;10.55;2.20;;;17.80;99.90;;;;;;5104179;28;20306;-82
2023/09/21 06:17:05;;;;;;;4.07;2.38;;;17.90;99.90;;;;;;5103209;28;20111;-80
2023/09/21 06:19:32;;;;;;;3.10;1.92;;;18.00;99.90;;;;;;5098314;28;20434;-82
2023/09/21 06:21:58;;;;;;;3.58;2.47;;;18.10;99.90;;;;;;5106042;28;20403;-84
2023/09/21 06:24:26;;;;;;;5.07;2.55;;;18.20;99.90;;;;;;5106820;28;20441;-84
2023/09/21 06:26:53;;;;;;;4.43;2.13;;;18.20;99.90;;;;;;5100182;28;20007;-83
2023/09/21 06:29:22;;;;;;;7.53;1.98;;;18.30;99.90;;;;;;5100780;28;20043;-82
2023/09/21 06:31:54;;;;;;;2.47;2.05;;;18.40;99.90;;;;;;5104010;28;20457;-83
2023/09/21 06:34:24;;;;;;;3.70;1.80;;;18.50;99.90;;;;;;5078274;28;20525;-81
2023/09/21 06:36:51;;;;;;;2.20;1.80;;;18.60;99.90;;;;;;5095988;28;20575;-82
2023/09/21 06:39:17;;;;;;;2.60;1.73;;;18.60;99.90;;;;;;5105496;28;20115;-83
2023/09/21 06:41:44;;;;;;;3.28;1.95;;;18.70;99.90;;;;;;5098841;28;20102;-83
2023/09/21 06:44:10;;;;;;;5.25;2.38;;;18.80;99.90;;;;;;5100182;28;20028;-81
2023/09/21 06:46:36;;;;;;;8.07;2.35;;;18.90;99.90;;;;;;5102384;28;20027;-83
2023/09/21 06:49:03;;;;;;;3.63;2.28;;;18.90;99.90;;;;;;5105626;28;20082;-83
2023/09/21 06:51:29;;;;;;;5.43;2.55;;;19.00;99.90;;;;;;5099421;28;20032;-83
2023/09/21 06:53:55;;;;;;;3.58;1.90;;;19.00;99.90;;;;;;5101776;28;20019;-82
2023/09/21 06:56:23;;;;;;;4.32;2.40;;;19.10;99.90;;;;;;5097810;28;20032;-81
2023/09/21 06:58:49;;;;;;;6.68;1.92;;;19.10;99.90;;;;;;5094267;28;20027;-84
2023/09/21 07:01:14;;;;;;;4.68;2.10;;;19.10;99.90;;;;;;5104261;28;20035;-84
2023/09/21 07:03:40;;;;;;;3.30;2.05;;;19.20;99.90;;;;;;5103546;28;20061;-82
2023/09/21 07:06:06;;;;;;;5.80;2.22;;;19.20;99.90;;;;;;5105592;28;20035;-83
2023/09/21 07:08:32;;;;;;;5.38;2.70;;;19.30;99.90;;;;;;5102037;28;20035;-84
2023/09/21 07:11:01;;;;;;;4.63;2.20;;;19.30;99.90;;;;;;5101018;28;20114;-86
2023/09/21 07:13:26;;;;;;;6.43;2.03;;;19.30;99.90;;;;;;5101737;28;20036;-83
2023/09/21 07:15:54;;;;;;;3.17;2.20;;;19.40;99.90;;;;;;5084478;28;20503;-82
2023/09/21 07:18:20;;;;;;;7.65;2.00;;;19.40;99.90;;;;;;5098620;28;20120;-83
2023/09/21 07:20:46;;;;;;;2.70;2.10;;;19.40;99.90;;;;;;5096403;27;20051;-83
2023/09/21 07:23:13;;;;;;;5.28;1.63;;;19.50;99.90;;;;;;5103926;28;20035;-84
2023/09/21 07:25:39;;;;;;;6.07;1.90;;;19.50;99.90;;;;;;5096913;28;20020;-84
2023/09/21 07:28:05;;;;;;;5.13;2.33;;;19.60;99.90;;;;;;5100139;28;20032;-82
2023/09/21 07:30:32;;;;;;;3.38;1.98;;;19.70;99.90;;;;;;5103549;27;20132;-83
2023/09/21 07:33:00;;;;;;;2.88;1.95;;;19.70;99.90;;;;;;5102455;28;20032;-82
2023/09/21 07:35:26;;;;;;;3.33;2.13;;;19.80;99.90;;;;;;5102731;28;20087;-83
2023/09/21 07:37:53;;;;;;;2.80;1.95;;;19.90;99.90;;;;;;5099309;28;20032;-84
2023/09/21 07:40:21;;;;;;;5.60;2.90;;;19.90;99.90;;;;;;5082452;28;20024;-82
2023/09/21 07:42:51;;;;;;;5.00;3.35;;;19.90;99.90;;;;;;5100675;28;20048;-83
2023/09/21 07:45:17;;;;;;;4.18;2.60;;;19.90;99.90;;;;;;5105750;28;20379;-83
2023/09/21 07:47:43;;;;;;;3.08;2.20;;;20.00;99.90;;;;;;5102975;28;20087;-83
2023/09/21 07:50:09;;;;;;;3.88;1.95;;;20.00;99.90;;;;;;5106430;28;20027;-83
2023/09/21 07:52:36;;;;;;;2.85;1.90;;;20.10;99.90;;;;;;5100380;28;20035;-82
2023/09/21 07:55:05;;;;;;;3.83;2.20;;;20.10;99.90;;;;;;5104556;28;20036;-83
2023/09/21 07:57:37;;;;;;;5.13;2.35;;;20.20;99.90;;;;;;5103251;28;20496;-82
2023/09/21 08:00:05;;;;;;;4.57;2.63;;;20.30;99.90;;;;;;5104711;28;20085;-83
2023/09/21 08:02:31;;;;;;;4.88;2.35;;;20.50;99.90;;;;;;5105625;28;20027;-83
2023/09/21 08:04:58;;;;;;;5.95;2.88;;;20.50;99.90;;;;;;5104170;28;20031;-83
2023/09/21 08:07:26;;;;;;;3.53;2.10;;;20.60;99.90;;;;;;5104291;28;20024;-83
2023/09/21 08:09:55;;;;;;;3.28;2.22;;;20.60;99.90;;;;;;5099754;28;20038;-83
2023/09/21 08:12:22;;;;;;;4.00;2.20;;;20.70;99.90;;;;;;5103956;28;20077;-82
2023/09/21 08:14:48;;;;;;;2.70;1.77;;;20.80;99.90;;;;;;5103825;28;20549;-83
2023/09/21 08:17:14;;;;;;;1.83;1.70;;;20.80;99.90;;;;;;5103732;28;20028;-84
2023/09/21 08:19:40;;;;;;;6.45;2.28;;;20.90;99.90;;;;;;5102953;28;20068;-84
2023/09/21 08:22:06;;;;;;;3.05;1.92;;;21.00;99.90;;;;;;5103838;28;20048;-83
2023/09/21 08:24:36;;;;;;;3.72;1.95;;;21.00;99.90;;;;;;5106435;28;20110;-83
2023/09/21 08:27:05;;;;;;;2.83;2.00;;;21.00;99.90;;;;;;5101553;28;20114;-85
2023/09/21 08:29:30;;;;;;;5.95;2.08;;;21.10;99.90;;;;;;5103744;28;20036;-83
2023/09/21 08:31:57;;;;;;;3.10;2.17;;;21.20;99.90;;;;;;5104420;28;20491;-83
2023/09/21 08:34:23;;;;;;;4.43;2.22;;;21.30;99.90;;;;;;5103081;28;20399;-83
2023/09/21 08:36:49;;;;;;;4.07;2.30;;;21.30;99.90;;;;;;5103400;28;20030;-83
2023/09/21 08:39:15;;;;;;;5.88;2.03;;;21.30;99.90;;;;;;5100537;28;20028;-83
2023/09/21 08:41:49;;;;;;;9.20;2.85;;;21.40;99.90;;;;;;5101815;28;20404;-84
2023/09/21 08:44:16;;;;;;;3.72;2.53;;;21.40;99.90;;;;;;5101614;28;20026;-82
2023/09/21 08:46:44;;;;;;;4.95;2.00;;;21.50;99.90;;;;;;5101135;28;20055;-83
2023/09/21 08:49:21;;;;;;;6.35;1.85;;;21.50;99.90;;;;;;5103726;27;20078;-84
2023/09/21 08:51:51;;;;;;;4.75;2.28;;;21.50;99.90;;;;;;5109904;27;20067;-84
2023/09/21 08:54:17;;;;;;;5.57;2.25;;;21.60;99.90;;;;;;5108960;27;20793;-82
2023/09/21 08:56:46;;;;;;;4.25;2.30;;;21.60;99.90;;;;;;5106082;27;20138;-83
2023/09/21 08:59:13;;;;;;;2.45;1.85;;;21.70;99.90;;;;;;5102170;27;20116;-83
2023/09/21 09:01:39;;;;;;;5.95;2.00;;;21.80;99.90;;;;;;5103728;27;20027;-83
2023/09/21 09:04:06;;;;;;;9.05;2.42;;;21.90;99.90;;;;;;5087892;28;20111;-84
2023/09/21 09:06:32;;;;;;;4.80;2.17;;;22.00;99.90;;;;;;5090219;28;20026;-84
2023/09/21 09:08:57;;;;;;;3.47;2.15;;;22.10;99.90;;;;;;5105315;27;20274;-82
2023/09/21 09:11:38;;;;;;;5.07;2.33;;;22.30;99.90;;;;;;5106913;28;20020;-82
2023/09/21 09:14:10;;;;;;;3.00;2.20;;;22.60;99.90;;;;;;5098253;27;22822;-82
2023/09/21 09:16:36;;;;;;;4.20;2.17;;;22.80;99.90;;;;;;5103662;28;20051;-83
2023/09/21 09:19:05;;;;;;;3.58;2.15;;;22.80;99.90;;;;;;5104417;28;20024;-81
2023/09/21 09:21:31;;;;;;;4.55;2.03;;;22.90;99.90;;;;;;5100596;27;20039;-82
2023/09/21 09:23:56;;;;;;;3.03;1.83;;;23.00;99.90;;;;;;5105880;28;20031;-81
2023/09/21 09:26:22;;;;;;;5.32;2.28;;;23.00;99.90;;;;;;5108238;27;20480;-84
2023/09/21 09:28:48;;;;;;;3.75;1.77;;;23.00;99.90;;;;;;5101179;28;20059;-82
2023/09/21 09:31:17;;;;;;;6.50;2.35;;;23.00;99.90;;;;;;5106906;28;20024;-85
2023/09/21 09:33:45;;;;;;;4.25;2.63;;;23.10;99.90;;;;;;5101177;28;20038;-84
2023/09/21 09:36:11;;;;;;;3.58;1.90;;;23.10;99.90;;;;;;5103018;28;20104;-83
2023/09/21 09:38:37;;;;;;;4.55;2.30;;;23.20;99.90;;;;;;5103477;28;20051;-83
2023/09/21 09:41:06;;;;;;;4.07;2.30;;;23.20;99.90;;;;;;5103645;27;20338;-80
2023/09/21 09:43:37;;;;;;;3.28;1.77;;;23.30;99.90;;;;;;5098702;27;20016;-81
2023/09/21 09:46:08;;;;;;;4.30;2.17;;;23.30;99.90;;;;;;5105649;28;20027;-84
2023/09/21 09:48:35;;;;;;;2.63;1.67;;;23.40;99.90;;;;;;5107600;28;20279;-84
2023/09/21 09:51:11;;;;;;;7.32;2.25;;;23.50;99.90;;;;;;5103778;27;20085;-84
2023/09/21 09:53:39;;;;;;;2.78;2.00;;;23.60;99.90;;;;;;5103883;27;20046;-81
2023/09/21 09:56:10;;;;;;;4.72;1.88;;;23.70;99.90;;;;;;5101972;27;20042;-82
2023/09/21 09:58:42;;;;;;;4.65;1.65;;;23.80;99.90;;;;;;5101589;27;20031;-85
2023/09/21 10:01:12;;;;;;;3.22;2.00;;;23.90;99.90;;;;;;5105203;27;20024;-84
2023/09/21 10:03:38;;;;;;;5.47;2.13;;;24.00;99.90;;;;;;5101721;27;20028;-83
2023/09/21 10:06:09;;;;;;;3.38;2.08;;;23.90;99.90;;;;;;5105499;28;20073;-82
2023/09/21 10:08:39;;;;;;;3.97;2.15;;;23.80;99.90;;;;;;5106610;28;20079;-83
2023/09/21 10:11:07;;;;;;;2.83;1.92;;;23.70;99.90;;;;;;5108277;28;20338;-83
2023/09/21 10:13:35;;;;;;;5.40;2.08;;;23.70;99.90;;;;;;5102969;28;20030;-81
2023/09/21 10:16:05;;;;;;;7.10;2.30;;;23.60;99.90;;;;;;5104736;28;20028;-82
2023/09/21 10:18:40;;;;;;;4.20;1.92;;;23.50;99.90;;;;;;5104031;27;20416;-82
2023/09/21 10:21:30;;;;;;;3.97;2.22;;;23.40;99.90;;;;;;5104079;28;20039;-83
2023/09/21 10:24:06;;;;;;;3.00;2.03;;;23.30;99.90;;;;;;5107095;28;20028;-83
2023/09/21 10:26:45;;;;;;;6.28;2.05;;;23.30;99.90;;;;;;5103806;28;20474;-82
2023/09/21 10:29:15;;;;;;;3.25;2.22;;;23.20;99.90;;;;;;5102959;28;20104;-82
2023/09/21 10:31:46;;;;;;;3.90;1.92;;;23.20;99.90;;;;;;5101509;28;20118;-82
2023/09/21 10:34:18;;;;;;;6.93;1.67;;;23.10;99.90;;;;;;5100969;28;20020;-82
2023/09/21 10:36:50;;;;;;;3.15;1.65;;;23.10;99.90;;;;;;5104160;28;20024;-80
2023/09/21 10:39:30;;;;;;;3.13;1.95;;;23.10;99.90;;;;;;5101006;28;20022;-83
2023/09/21 10:42:17;;;;;;;5.72;1.70;;;23.00;99.90;;;;;;5101458;27;20281;-82
2023/09/21 10:45:00;;;;;;;4.40;2.00;;;23.10;99.90;;;;;;5094341;28;20062;-83
2023/09/21 10:47:50;;;;;;;3.45;1.48;;;23.10;99.90;;;;;;5097940;28;20035;-80
2023/09/21 10:50:27;;;;;;;2.83;1.70;;;23.10;99.90;;;;;;5087523;28;20047;-83
2023/09/21 10:52:55;;;;;;;2.85;1.70;;;23.10;99.90;;;;;;5093053;27;20095;-81
2023/09/21 10:55:21;;;;;;;6.15;2.00;;;23.20;99.90;;;;;;5100570;27;20062;-82
2023/09/21 10:57:48;;;;;;;3.75;1.85;;;23.30;99.90;;;;;;5100023;28;20055;-82
2023/09/21 11:00:18;;;;;;;2.13;1.30;;;23.30;99.90;;;;;;5099497;28;20460;-84
2023/09/21 11:02:46;;;;;;;8.52;1.60;;;23.30;99.90;;;;;;5099867;28;20084;-83
2023/09/21 11:05:13;;;;;;;3.58;1.60;;;23.30;99.90;;;;;;5104880;28;20552;-83
2023/09/21 11:07:43;;;;;;;4.25;1.70;;;23.30;99.90;;;;;;5104190;28;20039;-83
2023/09/21 11:10:11;;;;;;;6.75;3.00;;;23.40;99.90;;;;;;5104138;28;20441;-83
2023/09/21 11:12:40;;;;;;;2.78;1.58;;;23.40;99.90;;;;;;5101451;28;20046;-82
2023/09/21 11:15:12;;;;;;;3.72;1.80;;;23.40;99.90;;;;;;5102474;28;20031;-82
2023/09/21 11:17:45;;;;;;;4.07;1.40;;;23.40;99.90;;;;;;5103923;28;20076;-83
2023/09/21 11:20:14;;;;;;;2.35;1.40;;;23.40;99.90;;;;;;5103637;28;20038;-84
2023/09/21 11:22:41;;;;;;;4.63;2.00;;;23.40;99.90;;;;;;5101123;28;20050;-83
2023/09/21 11:25:10;;;;;;;2.80;1.45;;;23.40;99.90;;;;;;5099839;28;20035;-84
2023/09/21 11:27:37;;;;;;;3.95;1.83;;;23.50;99.90;;;;;;5104436;28;20096;-83
2023/09/21 11:30:07;;;;;;;4.05;1.88;;;23.50;99.90;;;;;;5105731;28;20039;-83
2023/09/21 11:32:45;;;;;;;1.77;1.40;;;23.60;99.90;;;;;;5089501;28;20092;-83
2023/09/21 11:35:11;;;;;;;2.75;1.50;;;23.50;99.90;;;;;;5106308;28;20480;-83
2023/09/21 11:37:37;;;;;;;1.85;1.40;;;23.60;99.90;;;;;;5104666;28;20019;-83
2023/09/21 11:40:11;;;;;;;1.65;1.55;;;23.60;99.90;;;;;;5101626;28;20020;-82
2023/09/21 11:42:40;;;;;;;5.53;2.15;;;23.50;99.90;;;;;;5102608;28;20050;-84
2023/09/21 11:45:06;;;;;;;1.88;1.27;;;23.50;99.90;;;;;;5106910;28;20027;-83
2023/09/21 11:47:32;;;;;;;2.70;1.60;;;23.50;99.90;;;;;;5106478;28;20521;-81
2023/09/21 11:50:02;;;;;;;3.75;1.60;;;23.40;99.90;;;;;;5107807;28;20032;-83
2023/09/21 11:52:28;;;;;;;2.13;1.30;;;23.40;99.90;;;;;;5096023;28;20028;-83
2023/09/21 11:54:53;;;;;;;4.38;1.95;;;23.30;99.90;;;;;;5099986;28;20024;-82
2023/09/21 11:57:19;;;;;;;3.63;1.85;;;23.20;99.90;;;;;;5099656;28;20028;-84
2023/09/21 11:59:45;;;;;;;3.72;1.67;;;23.20;99.90;;;;;;5105241;28;20020;-83
2023/09/21 12:02:14;;;;;;;3.42;1.63;;;23.20;99.90;;;;;;5100766;28;20123;-84
2023/09/21 12:04:43;;;;;;;4.03;1.58;;;23.20;99.90;;;;;;5101057;28;20027;-83
2023/09/21 12:07:10;;;;;;;3.75;2.42;;;23.30;99.90;;;;;;5100776;28;20074;-83
2023/09/21 12:09:37;;;;;;;2.72;1.88;;;23.40;99.90;;;;;;5100223;28;20572;-83
2023/09/21 12:12:06;;;;;;;6.70;1.83;;;23.40;99.90;;;;;;5102035;28;20185;-82
2023/09/21 12:14:36;;;;;;;6.50;2.05;;;23.40;99.90;;;;;;5101417;28;20031;-84
2023/09/21 12:17:08;;;;;;;3.53;1.60;;;23.40;99.90;;;;;;5100084;28;20044;-83
2023/09/21 12:19:34;;;;;;;2.55;1.20;;;23.50;99.90;;;;;;5106387;28;20400;-83
2023/09/21 12:22:00;;;;;;;5.47;1.60;;;23.40;99.90;;;;;;5100204;28;20109;-81
2023/09/21 12:24:26;;;;;;;3.50;1.98;;;23.40;99.90;;;;;;5106449;27;20031;-84
2023/09/21 12:26:53;;;;;;;2.90;1.38;;;23.40;99.90;;;;;;5107762;28;20072;-80
2023/09/21 12:29:19;;;;;;;6.30;2.05;;;23.40;99.90;;;;;;5107652;28;20049;-84
2023/09/21 12:31:45;;;;;;;3.80;1.45;;;23.30;99.90;;;;;;5103595;28;20031;-83
2023/09/21 12:34:14;;;;;;;5.13;1.80;;;23.30;99.90;;;;;;5101839;28;20027;-84
2023/09/21 12:36:42;;;;;;;6.20;1.70;;;23.30;99.90;;;;;;5078603;28;20027;-84
2023/09/21 12:39:11;;;;;;;2.45;1.40;;;23.20;99.90;;;;;;5104502;27;20555;-83
2023/09/21 12:41:39;;;;;;;4.43;1.75;;;23.30;99.90;;;;;;5088910;28;20032;-83
2023/09/21 12:44:07;;;;;;;3.78;1.73;;;23.20;99.90;;;;;;5084946;28;20111;-83
2023/09/21 12:46:33;;;;;;;2.33;1.38;;;23.20;99.90;;;;;;5105009;28;20098;-84
2023/09/21 12:49:05;;;;;;;2.03;1.60;;;23.20;99.90;;;;;;5100614;27;20550;-84
2023/09/21 12:51:32;;;;;;;4.05;1.50;;;23.20;99.90;;;;;;5101971;27;20035;-83
2023/09/21 12:53:59;;;;;;;2.78;1.58;;;23.20;99.90;;;;;;5099366;27;20065;-85